Time;durP1;ratioP1;P1;durP2;ratioP2;P2;SDS_P1;SDS_P2;PMS_P1;PMS_P2;Temp;Humidity;BMP_temperature;BMP_pressure;BME280_temperature;BME280_humidity;BME280_pressure;Samples;Min_cycle;Max_cycle;Signal;HPM_P1;HPM_P2
2022/04/10 00:01:32;;;;;;;8.52;1.65;;;6.30;94.60;;;;;;5053197;28;20474;-81
2022/04/10 00:03:58;;;;;;;8.25;1.20;;;6.30;94.60;;;;;;5053449;28;20116;-81
2022/04/10 00:06:24;;;;;;;11.20;1.73;;;6.30;94.60;;;;;;5037058;28;20417;-80
2022/04/10 00:08:50;;;;;;;5.30;1.48;;;6.30;94.60;;;;;;5033663;28;20025;-80
2022/04/10 00:11:16;;;;;;;7.15;1.23;;;6.40;94.50;;;;;;5032763;28;20029;-80
2022/04/10 00:13:41;;;;;;;6.50;1.40;;;6.40;94.40;;;;;;5032584;28;20070;-80
2022/04/10 00:16:08;;;;;;;9.43;1.60;;;6.40;94.40;;;;;;5052550;28;20029;-80
2022/04/10 00:18:34;;;;;;;8.02;1.55;;;6.40;94.30;;;;;;5046209;28;20515;-80
2022/04/10 00:21:01;;;;;;;13.35;1.50;;;6.50;94.30;;;;;;5033501;28;20029;-80
2022/04/10 00:23:27;;;;;;;7.47;1.67;;;6.50;94.30;;;;;;5033654;28;20419;-80
2022/04/10 00:25:52;;;;;;;10.43;1.40;;;6.50;94.20;;;;;;5033214;28;20067;-80
2022/04/10 00:28:18;;;;;;;7.75;1.73;;;6.50;94.20;;;;;;5033066;28;20063;-80
2022/04/10 00:30:43;;;;;;;6.18;1.50;;;6.50;94.10;;;;;;5039292;28;20082;-80
2022/04/10 00:33:09;;;;;;;8.95;1.40;;;6.50;94.00;;;;;;5053445;28;20021;-81
2022/04/10 00:35:35;;;;;;;10.57;1.45;;;6.50;94.00;;;;;;5053065;28;20025;-81
2022/04/10 00:38:00;;;;;;;9.77;1.50;;;6.50;94.00;;;;;;5053113;28;20333;-81
2022/04/10 00:40:26;;;;;;;11.68;1.50;;;6.50;94.00;;;;;;5052937;28;20051;-81
2022/04/10 00:42:51;;;;;;;8.52;1.80;;;6.40;94.10;;;;;;5053073;28;20040;-81
2022/04/10 00:45:18;;;;;;;7.57;1.77;;;6.40;94.10;;;;;;5053239;28;20045;-81
2022/04/10 00:47:45;;;;;;;10.55;1.42;;;6.40;94.20;;;;;;5053240;28;20017;-81
2022/04/10 00:50:13;;;;;;;10.88;1.73;;;6.40;94.30;;;;;;5053045;28;20032;-82
2022/04/10 00:52:42;;;;;;;10.27;1.85;;;6.40;94.30;;;;;;5052926;28;20021;-82
2022/04/10 00:55:08;;;;;;;8.38;1.60;;;6.50;94.30;;;;;;5053171;28;20482;-81
2022/04/10 00:57:34;;;;;;;7.47;1.48;;;6.40;94.30;;;;;;5044776;28;20034;-80
2022/04/10 01:00:00;;;;;;;7.78;1.52;;;6.40;94.20;;;;;;5013274;28;20053;-80
2022/04/10 01:02:26;;;;;;;5.47;1.15;;;6.50;94.20;;;;;;5013176;28;20505;-80
2022/04/10 01:04:51;;;;;;;10.95;1.23;;;6.50;94.10;;;;;;5013300;28;20026;-80
2022/04/10 01:07:18;;;;;;;7.57;1.25;;;6.50;94.10;;;;;;5019313;28;20029;-80
2022/04/10 01:09:44;;;;;;;8.20;1.45;;;6.50;94.00;;;;;;5033285;28;20530;-80
2022/04/10 01:12:10;;;;;;;6.78;1.30;;;6.50;94.00;;;;;;5032523;28;20045;-80
2022/04/10 01:14:37;;;;;;;6.55;1.02;;;6.50;94.00;;;;;;5031848;28;20135;-80
2022/04/10 01:17:02;;;;;;;5.25;1.00;;;6.50;94.00;;;;;;5032384;28;20038;-80
2022/04/10 01:19:28;;;;;;;11.20;1.70;;;6.40;94.00;;;;;;5032546;28;20030;-80
2022/04/10 01:21:59;;;;;;;5.32;0.98;;;6.40;94.20;;;;;;5032430;28;20049;-79
2022/04/10 01:24:25;;;;;;;9.00;0.90;;;6.40;94.20;;;;;;5052120;28;20084;-80
2022/04/10 01:26:51;;;;;;;5.75;1.05;;;6.40;94.20;;;;;;5046404;28;20132;-80
2022/04/10 01:29:17;;;;;;;8.43;1.50;;;6.40;94.20;;;;;;5033740;28;20057;-79
2022/04/10 01:31:45;;;;;;;6.82;1.40;;;6.40;94.20;;;;;;5036537;28;20108;-79
2022/04/10 01:34:15;;;;;;;10.10;1.30;;;6.50;94.10;;;;;;5036295;28;20537;-80
2022/04/10 01:36:42;;;;;;;8.77;1.20;;;6.50;94.10;;;;;;5036582;28;20025;-79
2022/04/10 01:39:10;;;;;;;6.78;1.10;;;6.60;94.10;;;;;;5025313;28;20806;-80
2022/04/10 01:41:36;;;;;;;8.95;0.93;;;6.60;94.10;;;;;;5055697;28;20613;-80
2022/04/10 01:44:04;;;;;;;12.82;1.63;;;6.70;94.00;;;;;;5055984;28;20032;-81
2022/04/10 01:46:31;;;;;;;8.63;1.38;;;6.70;93.90;;;;;;5056008;28;20479;-80
2022/04/10 01:48:57;;;;;;;11.48;2.08;;;6.70;93.80;;;;;;5056130;28;20029;-80
2022/04/10 01:51:23;;;;;;;7.72;1.60;;;6.70;93.60;;;;;;5055684;28;20028;-80
2022/04/10 01:53:51;;;;;;;9.15;1.90;;;6.70;93.70;;;;;;5055790;28;20108;-80
2022/04/10 01:56:17;;;;;;;9.45;2.20;;;6.60;94.20;;;;;;5056060;28;20037;-81
2022/04/10 01:58:44;;;;;;;7.88;2.05;;;6.50;94.30;;;;;;5056066;28;20092;-81
2022/04/10 02:01:13;;;;;;;12.07;2.60;;;6.40;94.40;;;;;;5055462;28;20033;-81
2022/04/10 02:03:39;;;;;;;8.15;2.30;;;6.30;94.70;;;;;;5055943;28;20047;-81
2022/04/10 02:06:06;;;;;;;12.77;2.13;;;6.30;95.00;;;;;;5055926;28;20025;-81
2022/04/10 02:08:34;;;;;;;9.98;2.65;;;6.20;94.90;;;;;;5055632;28;20017;-80
2022/04/10 02:11:00;;;;;;;9.95;2.72;;;6.10;95.20;;;;;;5055546;28;20521;-80
2022/04/10 02:13:25;;;;;;;10.35;2.60;;;6.00;95.60;;;;;;5055383;28;20049;-80
2022/04/10 02:15:51;;;;;;;9.52;2.25;;;5.90;95.70;;;;;;5046656;28;20025;-80
2022/04/10 02:18:17;;;;;;;7.85;2.60;;;5.80;95.90;;;;;;5035661;28;20029;-80
2022/04/10 02:20:43;;;;;;;9.88;3.10;;;5.70;96.10;;;;;;5035611;28;20375;-80
2022/04/10 02:23:09;;;;;;;13.60;2.65;;;5.70;96.30;;;;;;5035272;28;20025;-80
2022/04/10 02:25:35;;;;;;;10.20;2.33;;;5.60;96.60;;;;;;5040651;28;20431;-80
2022/04/10 02:28:01;;;;;;;9.52;2.45;;;5.30;96.80;;;;;;5055491;28;20029;-80
2022/04/10 02:30:26;;;;;;;6.20;2.20;;;5.20;97.10;;;;;;5042822;28;20037;-80
2022/04/10 02:32:52;;;;;;;12.23;2.35;;;5.20;97.30;;;;;;5035313;28;20113;-80
2022/04/10 02:35:18;;;;;;;12.45;2.40;;;5.10;97.50;;;;;;5035226;28;20456;-80
2022/04/10 02:37:47;;;;;;;16.13;2.45;;;5.10;97.60;;;;;;5035367;28;20025;-80
2022/04/10 02:40:18;;;;;;;8.20;2.33;;;5.10;97.70;;;;;;5035068;28;20029;-80
2022/04/10 02:42:44;;;;;;;8.98;2.33;;;5.10;97.60;;;;;;5048119;28;20460;-80
2022/04/10 02:45:11;;;;;;;11.88;2.20;;;5.20;97.50;;;;;;5054823;28;20029;-80
2022/04/10 02:47:37;;;;;;;11.32;2.30;;;5.20;97.30;;;;;;5054983;28;20057;-81
2022/04/10 02:50:04;;;;;;;9.32;2.58;;;5.30;97.20;;;;;;5054994;28;20470;-80
2022/04/10 02:52:30;;;;;;;8.98;2.00;;;5.40;97.10;;;;;;5055022;28;20029;-80
2022/04/10 02:54:55;;;;;;;10.40;2.63;;;5.40;97.00;;;;;;5054303;28;20032;-80
2022/04/10 02:57:21;;;;;;;11.70;1.60;;;5.50;96.90;;;;;;5054899;28;20028;-80
2022/04/10 02:59:47;;;;;;;9.63;2.00;;;5.60;96.80;;;;;;5054690;28;20056;-80
2022/04/10 03:02:12;;;;;;;10.25;2.55;;;5.60;96.60;;;;;;5054278;28;20089;-80
2022/04/10 03:04:38;;;;;;;9.18;3.00;;;5.70;96.60;;;;;;5054601;28;20799;-80
2022/04/10 03:07:03;;;;;;;11.80;3.78;;;5.70;96.40;;;;;;5054684;28;20060;-80
2022/04/10 03:09:29;;;;;;;16.73;4.07;;;5.80;96.40;;;;;;5054711;28;20058;-80
2022/04/10 03:11:55;;;;;;;16.48;2.65;;;5.90;96.20;;;;;;5054393;28;20511;-80
2022/04/10 03:14:20;;;;;;;11.63;2.25;;;5.90;96.10;;;;;;5054662;28;20052;-81
2022/04/10 03:16:46;;;;;;;7.85;1.75;;;5.90;96.10;;;;;;5054381;28;20384;-80
2022/04/10 03:19:12;;;;;;;7.78;1.83;;;6.00;96.00;;;;;;5041084;28;20103;-80
2022/04/10 03:21:37;;;;;;;7.30;1.73;;;6.00;95.60;;;;;;5034345;28;20045;-82
2022/04/10 03:24:03;;;;;;;7.43;1.88;;;5.90;95.60;;;;;;5034524;28;20073;-81
2022/04/10 03:26:29;;;;;;;11.75;2.17;;;6.00;95.60;;;;;;5033729;28;20033;-81
2022/04/10 03:28:55;;;;;;;7.82;2.33;;;6.00;95.40;;;;;;5049342;28;20133;-81
2022/04/10 03:31:22;;;;;;;13.15;2.03;;;6.00;95.10;;;;;;5052479;28;20060;-81
2022/04/10 03:33:48;;;;;;;12.18;2.30;;;6.10;95.20;;;;;;5034272;28;20029;-81
2022/04/10 03:36:15;;;;;;;6.88;1.70;;;6.10;95.00;;;;;;5034290;28;20032;-81
2022/04/10 03:38:41;;;;;;;7.28;1.38;;;6.00;94.80;;;;;;5034318;28;20444;-81
2022/04/10 03:41:07;;;;;;;11.80;1.67;;;6.10;94.80;;;;;;5033514;28;20065;-81
2022/04/10 03:43:32;;;;;;;8.05;1.42;;;6.10;94.80;;;;;;5035692;28;20415;-81
2022/04/10 03:45:58;;;;;;;7.88;2.38;;;6.10;94.70;;;;;;5041314;28;20026;-80
2022/04/10 03:48:24;;;;;;;11.38;1.70;;;6.20;94.70;;;;;;5033757;28;20037;-80
2022/04/10 03:50:50;;;;;;;4.78;1.48;;;6.20;94.60;;;;;;5032964;28;20029;-80
2022/04/10 03:53:16;;;;;;;11.40;1.70;;;6.30;94.60;;;;;;5032505;28;20091;-80
2022/04/10 03:55:42;;;;;;;7.78;1.60;;;6.30;94.50;;;;;;5033731;28;20025;-80
2022/04/10 03:58:07;;;;;;;8.13;1.48;;;6.40;94.50;;;;;;5033278;28;20033;-80
2022/04/10 04:00:33;;;;;;;5.82;1.08;;;6.40;94.40;;;;;;5032872;28;20056;-80
2022/04/10 04:02:58;;;;;;;6.82;1.70;;;6.50;94.30;;;;;;5040906;28;20460;-81
2022/04/10 04:05:24;;;;;;;8.65;1.95;;;6.50;94.20;;;;;;5053413;28;20078;-80
2022/04/10 04:07:50;;;;;;;9.27;1.67;;;6.50;94.00;;;;;;5039245;28;20029;-80
2022/04/10 04:10:15;;;;;;;10.48;2.17;;;6.50;94.00;;;;;;5033658;28;20028;-80
2022/04/10 04:12:41;;;;;;;8.65;1.90;;;6.50;93.90;;;;;;5033309;28;20051;-80
2022/04/10 04:15:07;;;;;;;9.57;2.55;;;6.60;93.80;;;;;;5033778;28;20033;-80
2022/04/10 04:17:33;;;;;;;9.60;2.00;;;6.50;93.60;;;;;;5033054;28;20025;-79
2022/04/10 04:19:58;;;;;;;8.07;2.05;;;6.40;93.60;;;;;;5039998;28;20029;-79
2022/04/10 04:22:24;;;;;;;6.85;1.90;;;6.40;93.50;;;;;;5013635;28;20033;-79
2022/04/10 04:24:50;;;;;;;9.55;2.38;;;6.30;93.40;;;;;;5013752;28;20105;-79
2022/04/10 04:27:15;;;;;;;8.73;2.20;;;6.30;93.50;;;;;;5013585;28;20067;-80
2022/04/10 04:29:41;;;;;;;12.05;2.10;;;6.10;93.50;;;;;;5013343;28;20026;-80
2022/04/10 04:32:07;;;;;;;15.10;2.17;;;5.90;93.90;;;;;;5013544;28;20057;-80
2022/04/10 04:34:32;;;;;;;8.77;1.95;;;5.90;94.30;;;;;;5013728;28;20030;-80
2022/04/10 04:36:58;;;;;;;8.07;1.98;;;5.90;94.40;;;;;;5012973;28;20040;-80
2022/04/10 04:39:24;;;;;;;9.07;1.42;;;5.90;94.40;;;;;;5013356;28;20388;-80
2022/04/10 04:41:49;;;;;;;8.73;1.73;;;6.00;94.30;;;;;;5013625;28;20041;-81
2022/04/10 04:44:15;;;;;;;6.05;1.58;;;6.10;94.30;;;;;;5013064;28;20025;-80
2022/04/10 04:46:41;;;;;;;8.45;1.55;;;6.20;94.20;;;;;;5013375;28;20034;-81
2022/04/10 04:49:07;;;;;;;13.25;1.80;;;6.30;94.00;;;;;;5013498;28;20311;-80
2022/04/10 04:51:34;;;;;;;10.32;1.58;;;6.40;93.90;;;;;;5013338;28;20040;-81
2022/04/10 04:54:01;;;;;;;11.05;2.00;;;6.40;93.80;;;;;;5013474;28;20076;-81
2022/04/10 04:56:26;;;;;;;12.63;2.20;;;6.50;93.60;;;;;;5040070;28;20061;-81
2022/04/10 04:58:52;;;;;;;8.32;1.98;;;6.40;93.40;;;;;;5052923;28;20468;-81
2022/04/10 05:01:18;;;;;;;8.85;1.80;;;6.40;93.40;;;;;;5047701;28;20030;-80
2022/04/10 05:03:43;;;;;;;7.68;1.38;;;6.50;93.40;;;;;;5032377;28;20021;-81
2022/04/10 05:06:09;;;;;;;7.47;1.58;;;6.50;93.40;;;;;;5036296;28;20459;-81
2022/04/10 05:08:35;;;;;;;8.65;1.45;;;6.50;93.40;;;;;;5053212;28;20021;-81
2022/04/10 05:11:00;;;;;;;10.18;1.88;;;6.50;93.40;;;;;;5053445;28;20384;-80
2022/04/10 05:13:27;;;;;;;5.40;1.52;;;6.60;93.40;;;;;;5036621;28;20095;-80
2022/04/10 05:15:53;;;;;;;9.80;2.35;;;6.60;93.40;;;;;;5036499;28;20037;-80
2022/04/10 05:18:19;;;;;;;10.77;2.38;;;6.60;93.30;;;;;;5036912;28;20026;-80
2022/04/10 05:20:46;;;;;;;8.05;1.70;;;6.50;93.30;;;;;;5036753;28;20052;-80
2022/04/10 05:23:16;;;;;;;8.52;1.88;;;6.60;93.30;;;;;;5039953;28;20025;-80
2022/04/10 05:25:41;;;;;;;8.05;1.70;;;6.50;93.20;;;;;;5056470;28;20021;-80
2022/04/10 05:28:07;;;;;;;8.40;1.95;;;6.60;93.20;;;;;;5056411;28;20039;-79
2022/04/10 05:30:33;;;;;;;11.40;2.17;;;6.50;93.10;;;;;;5056348;28;20043;-79
2022/04/10 05:32:58;;;;;;;9.20;1.88;;;6.60;93.10;;;;;;5056244;28;20079;-80
2022/04/10 05:35:24;;;;;;;8.63;2.00;;;6.60;93.10;;;;;;5056210;28;20025;-80
2022/04/10 05:37:50;;;;;;;10.02;1.88;;;6.60;93.20;;;;;;5056312;28;20021;-79
2022/04/10 05:40:16;;;;;;;9.38;2.50;;;6.60;93.20;;;;;;5056444;28;20108;-80
2022/04/10 05:42:45;;;;;;;9.77;2.20;;;6.60;93.10;;;;;;5056461;28;20025;-80
2022/04/10 05:45:11;;;;;;;9.45;2.35;;;6.60;93.00;;;;;;5056122;28;20025;-79
2022/04/10 05:47:39;;;;;;;10.80;2.25;;;6.60;93.00;;;;;;5056019;28;20029;-79
2022/04/10 05:50:05;;;;;;;9.85;2.40;;;6.60;93.10;;;;;;5056256;28;20044;-79
2022/04/10 05:52:31;;;;;;;8.23;2.13;;;6.50;93.00;;;;;;5055902;28;20361;-80
2022/04/10 05:54:59;;;;;;;6.95;1.80;;;6.50;93.10;;;;;;5055995;28;20032;-79
2022/04/10 05:57:25;;;;;;;5.88;1.92;;;6.50;93.10;;;;;;5056012;28;20027;-79
2022/04/10 05:59:51;;;;;;;11.30;2.80;;;6.50;93.40;;;;;;5051136;28;20021;-79
2022/04/10 06:02:17;;;;;;;11.07;2.47;;;6.50;93.50;;;;;;5035912;28;20036;-80
2022/04/10 06:04:42;;;;;;;6.38;2.03;;;6.50;93.60;;;;;;5035783;28;20540;-80
2022/04/10 06:07:08;;;;;;;8.80;2.33;;;6.50;93.70;;;;;;5035246;28;20030;-80
2022/04/10 06:09:34;;;;;;;10.02;2.38;;;6.50;93.70;;;;;;5035556;28;20026;-80
2022/04/10 06:11:59;;;;;;;8.85;2.10;;;6.50;93.80;;;;;;5052887;28;20377;-80
2022/04/10 06:14:25;;;;;;;9.63;2.50;;;6.40;94.10;;;;;;5051386;28;20025;-80
2022/04/10 06:16:50;;;;;;;12.00;2.60;;;6.40;94.30;;;;;;5034723;28;20028;-80
2022/04/10 06:19:18;;;;;;;9.43;2.72;;;6.40;94.50;;;;;;5035806;28;20025;-79
2022/04/10 06:21:44;;;;;;;9.43;2.63;;;6.50;94.70;;;;;;5035343;28;20030;-80
2022/04/10 06:24:09;;;;;;;9.85;2.78;;;6.50;94.80;;;;;;5035691;28;20025;-79
2022/04/10 06:26:35;;;;;;;12.32;3.17;;;6.60;94.80;;;;;;5039504;28;20047;-80
2022/04/10 06:29:01;;;;;;;12.20;2.80;;;6.60;94.80;;;;;;5055117;28;20063;-79
2022/04/10 06:31:27;;;;;;;11.32;3.40;;;6.60;94.70;;;;;;5055136;28;20025;-80
2022/04/10 06:33:54;;;;;;;11.43;3.15;;;6.70;94.70;;;;;;5055293;28;20025;-80
2022/04/10 06:36:19;;;;;;;13.65;3.45;;;6.70;94.70;;;;;;5055220;28;20032;-80
2022/04/10 06:38:45;;;;;;;13.07;3.00;;;6.70;94.90;;;;;;5055304;28;20029;-80
2022/04/10 06:41:11;;;;;;;11.63;2.83;;;6.70;94.90;;;;;;5055090;28;20032;-80
2022/04/10 06:43:37;;;;;;;9.90;3.20;;;6.70;94.90;;;;;;5054559;28;20025;-80
2022/04/10 06:46:04;;;;;;;10.18;2.65;;;6.70;94.90;;;;;;5054702;28;20472;-80
2022/04/10 06:48:30;;;;;;;7.57;2.20;;;6.80;94.90;;;;;;5055188;28;20090;-80
2022/04/10 06:50:56;;;;;;;9.77;2.20;;;6.90;94.80;;;;;;5054501;28;20476;-81
2022/04/10 06:53:22;;;;;;;7.60;2.10;;;6.90;94.70;;;;;;5054893;28;20387;-81
2022/04/10 06:55:47;;;;;;;11.57;1.75;;;6.90;94.60;;;;;;5054860;28;20025;-82
2022/04/10 06:58:13;;;;;;;7.25;1.30;;;6.80;94.20;;;;;;5054507;28;20033;-82
2022/04/10 07:00:40;;;;;;;12.63;1.70;;;6.80;94.60;;;;;;5054448;28;20067;-81
2022/04/10 07:03:06;;;;;;;7.13;1.50;;;6.70;94.30;;;;;;5050686;28;20030;-81
2022/04/10 07:05:32;;;;;;;9.93;1.42;;;6.70;94.90;;;;;;5034804;28;20071;-81
2022/04/10 07:07:57;;;;;;;12.75;1.48;;;6.70;94.90;;;;;;5034518;28;20469;-81
2022/04/10 07:10:23;;;;;;;8.23;1.05;;;6.70;95.30;;;;;;5034386;28;20040;-80
2022/04/10 07:12:48;;;;;;;9.55;1.13;;;6.70;95.80;;;;;;5033730;28;20136;-81
2022/04/10 07:15:14;;;;;;;4.75;0.93;;;6.80;95.90;;;;;;5033794;28;20029;-81
2022/04/10 07:17:39;;;;;;;7.22;1.17;;;6.80;96.00;;;;;;5033612;28;20033;-81
2022/04/10 07:20:06;;;;;;;9.77;1.15;;;6.90;96.30;;;;;;5040915;28;20025;-83
2022/04/10 07:25:17;;;;;;;5.65;1.15;;;6.80;96.40;;;;;;5038051;28;20055;-80
2022/04/10 07:27:42;;;;;;;8.50;1.13;;;6.80;96.90;;;;;;5034257;28;20104;-81
2022/04/10 07:30:08;;;;;;;5.07;0.68;;;6.80;97.10;;;;;;5034016;28;20024;-82
2022/04/10 07:32:34;;;;;;;5.93;0.73;;;6.80;97.10;;;;;;5034385;28;20030;-81
2022/04/10 07:35:04;;;;;;;5.85;0.70;;;6.90;97.30;;;;;;5034293;28;20037;-79
2022/04/10 07:37:29;;;;;;;3.25;0.50;;;7.00;97.50;;;;;;5049695;28;20025;-78
2022/04/10 07:39:55;;;;;;;5.05;0.70;;;7.20;97.60;;;;;;5053263;28;20029;-79
2022/04/10 07:42:21;;;;;;;3.92;0.47;;;7.40;97.30;;;;;;5054002;28;20033;-79
2022/04/10 07:44:46;;;;;;;3.50;0.40;;;7.50;97.40;;;;;;5054142;28;20463;-79
2022/04/10 07:47:27;;;;;;;4.40;0.50;;;7.70;97.20;;;;;;5048370;28;20025;-78
2022/04/10 07:49:56;;;;;;;3.85;0.40;;;7.90;96.60;;;;;;5014083;28;20030;-79
2022/04/10 07:52:23;;;;;;;4.82;1.25;;;8.00;95.70;;;;;;5013909;28;20061;-79
2022/04/10 07:54:49;;;;;;;4.30;0.35;;;8.10;95.00;;;;;;5014286;28;20030;-79
2022/04/10 07:57:16;;;;;;;2.65;0.30;;;8.30;94.50;;;;;;5014131;28;20026;-79
2022/04/10 07:59:42;;;;;;;2.13;0.47;;;8.40;94.40;;;;;;5014074;28;20022;-80
2022/04/10 08:02:08;;;;;;;3.40;0.40;;;8.30;93.70;;;;;;5013653;28;20040;-79
2022/04/10 08:04:33;;;;;;;3.50;0.30;;;8.30;94.00;;;;;;5013952;28;20075;-80
2022/04/10 08:06:59;;;;;;;2.55;0.35;;;8.30;94.10;;;;;;5013622;28;20546;-79
2022/04/10 08:09:24;;;;;;;6.15;0.45;;;8.40;93.70;;;;;;5013642;28;20022;-79
2022/04/10 08:11:50;;;;;;;5.07;0.60;;;8.50;93.50;;;;;;5013480;28;20057;-79
2022/04/10 08:14:16;;;;;;;3.42;0.30;;;8.60;93.20;;;;;;5031970;28;20044;-77
2022/04/10 08:16:42;;;;;;;3.38;0.43;;;8.60;93.20;;;;;;5033421;28;20411;-78
2022/04/10 08:19:07;;;;;;;3.40;0.40;;;8.70;93.10;;;;;;5032314;28;20108;-81
2022/04/10 08:21:33;;;;;;;3.72;0.30;;;8.70;93.10;;;;;;5027425;28;20420;-81
2022/04/10 08:23:59;;;;;;;3.70;0.30;;;8.80;93.10;;;;;;5024103;28;20028;-83
2022/04/10 08:26:24;;;;;;;2.47;0.30;;;8.90;92.80;;;;;;5024596;28;20037;-83
2022/04/10 08:28:50;;;;;;;5.85;0.50;;;9.00;92.60;;;;;;5022412;28;20052;-79
2022/04/10 08:31:15;;;;;;;3.50;0.32;;;9.10;92.60;;;;;;5022949;28;20022;-79
2022/04/10 08:33:41;;;;;;;2.70;0.30;;;9.10;91.90;;;;;;5022844;28;20064;-80
2022/04/10 08:36:07;;;;;;;2.85;0.60;;;9.20;91.00;;;;;;5020990;28;20030;-81
2022/04/10 08:38:32;;;;;;;3.05;0.30;;;9.20;91.20;;;;;;5026527;28;20041;-81
2022/04/10 08:41:02;;;;;;;4.28;0.43;;;9.30;91.60;;;;;;5030510;28;20057;-78
2022/04/10 08:43:28;;;;;;;4.30;0.55;;;9.40;90.10;;;;;;5029582;28;20026;-78
2022/04/10 08:45:58;;;;;;;2.08;0.30;;;9.40;89.90;;;;;;5026844;28;20393;-78
2022/04/10 08:48:26;;;;;;;5.25;0.30;;;9.50;90.00;;;;;;5019866;28;20029;-78
2022/04/10 08:50:55;;;;;;;3.45;0.32;;;9.60;89.40;;;;;;5019764;28;20087;-89
2022/04/10 08:53:22;;;;;;;4.43;0.30;;;9.70;88.70;;;;;;5019430;28;20064;-79
2022/04/10 08:55:47;;;;;;;2.92;0.40;;;9.80;89.40;;;;;;5019721;28;20469;-79
2022/04/10 08:58:13;;;;;;;3.40;0.32;;;9.90;88.30;;;;;;5019992;28;20041;-77
2022/04/10 09:00:43;;;;;;;3.90;0.20;;;10.10;87.90;;;;;;5019717;28;20537;-77
2022/04/10 09:03:08;;;;;;;3.22;0.50;;;10.20;88.00;;;;;;5019701;28;20112;-77
2022/04/10 09:05:34;;;;;;;4.90;0.40;;;10.40;87.00;;;;;;5019985;28;20101;-77
2022/04/10 09:08:19;;;;;;;4.63;0.70;;;10.60;86.70;;;;;;5019758;28;20025;-77
2022/04/10 09:10:59;;;;;;;4.75;0.50;;;10.80;87.60;;;;;;5019824;28;20076;-77
2022/04/10 09:13:27;;;;;;;4.47;0.40;;;10.90;84.20;;;;;;5020946;28;20465;-76
2022/04/10 09:16:21;;;;;;;3.40;0.50;;;10.70;83.50;;;;;;5059261;28;20029;-84
2022/04/10 09:18:54;;;;;;;4.10;0.40;;;10.70;82.70;;;;;;5059536;28;20040;-83
2022/04/10 09:21:23;;;;;;;9.10;0.60;;;10.60;81.90;;;;;;5040833;28;20050;-82
2022/04/10 09:24:06;;;;;;;3.33;0.35;;;10.70;81.70;;;;;;5032580;28;20025;-79
2022/04/10 09:26:48;;;;;;;3.85;0.63;;;10.60;80.50;;;;;;5029067;28;20029;-80
2022/04/10 09:29:16;;;;;;;2.83;0.43;;;10.80;79.20;;;;;;5039591;28;20044;-79
2022/04/10 09:31:42;;;;;;;3.60;0.38;;;10.90;76.80;;;;;;5059537;28;20353;-78
2022/04/10 09:34:10;;;;;;;3.95;0.38;;;11.00;78.40;;;;;;5046829;28;20025;-78
2022/04/10 09:36:41;;;;;;;3.08;0.40;;;11.30;78.20;;;;;;5039450;28;20219;-77
2022/04/10 09:39:09;;;;;;;2.85;0.35;;;11.50;77.10;;;;;;5039274;28;20039;-75
2022/04/10 09:41:36;;;;;;;1.70;0.40;;;11.60;74.90;;;;;;5039450;28;20087;-76
2022/04/10 09:44:16;;;;;;;3.55;0.50;;;11.70;74.10;;;;;;5039176;28;20026;-80
2022/04/10 09:46:43;;;;;;;2.63;0.40;;;11.90;74.00;;;;;;5054215;28;20490;-78
2022/04/10 09:49:17;;;;;;;3.65;0.40;;;11.90;73.20;;;;;;5059313;28;20025;-77
2022/04/10 09:52:02;;;;;;;2.03;0.30;;;11.90;71.10;;;;;;5056197;28;20079;-77
2022/04/10 09:54:47;;;;;;;5.00;0.55;;;11.90;70.50;;;;;;5055887;28;20029;-77
2022/04/10 09:57:18;;;;;;;4.88;0.40;;;11.90;70.00;;;;;;5055780;28;20159;-76
2022/04/10 09:59:46;;;;;;;4.25;0.30;;;12.00;71.40;;;;;;5055672;28;20097;-76
2022/04/10 10:02:16;;;;;;;4.82;0.30;;;12.00;70.20;;;;;;5056024;28;20365;-80
2022/04/10 10:04:44;;;;;;;2.80;0.32;;;11.90;69.10;;;;;;5055856;28;20063;-79
2022/04/10 10:07:21;;;;;;;8.18;0.40;;;11.80;69.60;;;;;;5055456;28;20021;-80
2022/04/10 10:09:48;;;;;;;2.38;0.22;;;11.80;68.90;;;;;;5055511;28;20491;-80
2022/04/10 10:12:14;;;;;;;3.45;0.20;;;11.80;68.80;;;;;;5055547;28;20045;-78
2022/04/10 10:14:40;;;;;;;2.50;0.15;;;11.80;65.50;;;;;;5055658;28;20025;-79
2022/04/10 10:17:07;;;;;;;3.35;0.40;;;11.60;66.10;;;;;;5055694;28;20083;-80
2022/04/10 10:19:35;;;;;;;3.55;0.50;;;11.70;69.30;;;;;;5054994;28;20040;-81
2022/04/10 10:22:09;;;;;;;2.22;0.30;;;11.70;68.50;;;;;;5049636;28;20037;-80
2022/04/10 10:24:40;;;;;;;4.28;0.50;;;11.60;66.70;;;;;;5035752;28;20079;-81
2022/04/10 10:27:25;;;;;;;2.85;0.32;;;11.50;67.30;;;;;;5035508;28;20068;-80
2022/04/10 10:30:20;;;;;;;3.20;0.50;;;11.70;69.30;;;;;;5035233;28;20420;-81
2022/04/10 10:33:14;;;;;;;2.78;0.30;;;11.90;67.40;;;;;;5015522;28;20033;-80
2022/04/10 10:35:42;;;;;;;5.15;0.30;;;12.20;69.10;;;;;;5043601;28;20036;-80
2022/04/10 10:38:21;;;;;;;3.60;0.30;;;12.60;66.50;;;;;;5055367;28;20025;-80
2022/04/10 10:40:49;;;;;;;3.63;0.20;;;12.50;64.10;;;;;;5054961;28;20045;-80
2022/04/10 10:43:20;;;;;;;2.42;0.22;;;12.40;62.80;;;;;;5054937;28;20108;-80
2022/04/10 10:45:48;;;;;;;3.47;0.30;;;12.40;63.50;;;;;;5055201;28;20033;-82
2022/04/10 10:48:31;;;;;;;3.78;0.30;;;12.60;64.20;;;;;;5037063;28;20071;-80
2022/04/10 10:51:00;;;;;;;;;;;13.00;64.30;;;;;;5035269;28;20029;-85
2022/04/10 10:53:47;;;;;;;1.65;0.20;;;12.90;59.60;;;;;;5034661;28;20047;-81
2022/04/10 10:56:37;;;;;;;1.10;0.20;;;13.00;60.40;;;;;;5035046;28;20029;-80
2022/04/10 10:59:21;;;;;;;2.95;0.20;;;13.20;58.30;;;;;;5034883;28;20030;-80
2022/04/10 11:02:14;;;;;;;3.33;0.35;;;13.30;53.80;;;;;;5034280;28;20110;-80
2022/04/10 11:04:42;;;;;;;2.15;0.25;;;13.40;55.30;;;;;;5034678;28;20469;-80
2022/04/10 11:07:19;;;;;;;3.78;0.28;;;13.40;55.20;;;;;;5034340;28;20477;-80
2022/04/10 11:10:00;;;;;;;2.33;0.20;;;13.50;56.00;;;;;;5034850;28;20416;-79
2022/04/10 11:12:30;;;;;;;5.38;0.63;;;13.80;57.40;;;;;;5034212;28;20495;-79
2022/04/10 11:14:56;;;;;;;4.18;0.30;;;14.00;54.60;;;;;;5033062;28;20022;-79
2022/04/10 11:17:32;;;;;;;3.33;0.30;;;14.00;52.30;;;;;;5034198;28;20460;-79
2022/04/10 11:20:05;;;;;;;4.18;0.30;;;13.80;53.10;;;;;;5034542;28;20113;-79
2022/04/10 11:22:35;;;;;;;2.50;0.20;;;13.80;55.60;;;;;;5034110;28;20539;-79
2022/04/10 11:25:05;;;;;;;3.67;0.38;;;13.90;55.90;;;;;;5014683;28;20385;-79
2022/04/10 11:27:54;;;;;;;3.38;0.28;;;13.90;53.90;;;;;;5014254;28;20417;-79
2022/04/10 11:30:39;;;;;;;1.73;0.10;;;13.80;53.10;;;;;;5014208;28;20523;-79
2022/04/10 11:33:07;;;;;;;4.00;0.30;;;13.60;53.80;;;;;;5033166;28;20021;-79
2022/04/10 11:35:34;;;;;;;4.15;0.30;;;13.60;54.30;;;;;;5033994;28;20029;-79
2022/04/10 11:38:01;;;;;;;3.80;0.40;;;13.90;54.70;;;;;;5033375;28;20053;-80
2022/04/10 11:40:29;;;;;;;3.08;0.30;;;14.10;52.50;;;;;;5033953;28;20033;-80
2022/04/10 11:42:59;;;;;;;2.00;0.20;;;14.10;52.20;;;;;;5033577;28;20466;-80
2022/04/10 11:45:27;;;;;;;3.03;0.35;;;13.90;51.40;;;;;;5037491;28;20041;-79
2022/04/10 11:47:53;;;;;;;1.67;0.15;;;13.80;52.40;;;;;;5053410;28;20119;-79
2022/04/10 11:50:21;;;;;;;1.80;0.25;;;13.60;52.20;;;;;;5042471;28;20021;-80
2022/04/10 11:53:00;;;;;;;3.88;0.20;;;13.50;51.50;;;;;;5033701;28;20037;-80
2022/04/10 11:55:32;;;;;;;2.75;0.25;;;13.60;51.50;;;;;;5034013;28;20026;-79
2022/04/10 11:57:58;;;;;;;2.80;0.17;;;13.70;50.70;;;;;;5033346;28;20443;-80
2022/04/10 12:00:24;;;;;;;2.92;0.30;;;13.70;50.10;;;;;;5033641;28;20057;-80
2022/04/10 12:02:53;;;;;;;2.63;0.73;;;13.70;50.00;;;;;;5048078;28;20036;-79
2022/04/10 12:05:20;;;;;;;2.25;0.30;;;13.50;49.20;;;;;;5053687;28;20079;-79
2022/04/10 12:07:46;;;;;;;3.38;0.30;;;13.40;50.50;;;;;;5053774;28;20474;-79
2022/04/10 12:10:18;;;;;;;3.28;0.50;;;13.30;50.60;;;;;;5053452;28;20067;-79
2022/04/10 12:12:45;;;;;;;3.22;0.30;;;13.30;52.30;;;;;;5053042;28;20045;-79
2022/04/10 12:15:19;;;;;;;3.28;0.32;;;13.30;53.50;;;;;;5052682;28;20025;-80
2022/04/10 12:17:48;;;;;;;2.47;0.20;;;13.10;54.20;;;;;;5053480;28;20166;-80
2022/04/10 12:20:14;;;;;;;4.30;0.25;;;13.00;53.70;;;;;;5052914;28;20032;-80
2022/04/10 12:22:43;;;;;;;4.75;0.30;;;13.00;52.50;;;;;;5053367;28;20037;-80
2022/04/10 12:25:11;;;;;;;2.97;0.40;;;13.00;52.00;;;;;;5053075;28;20017;-80
2022/04/10 12:27:37;;;;;;;2.22;0.20;;;12.90;51.30;;;;;;5053157;28;20029;-80
2022/04/10 12:30:09;;;;;;;2.70;0.30;;;12.80;50.30;;;;;;5053110;28;20379;-80
2022/04/10 12:32:35;;;;;;;3.63;0.30;;;12.90;52.40;;;;;;5053533;28;20052;-80
2022/04/10 12:35:09;;;;;;;2.97;0.20;;;13.00;51.90;;;;;;5053320;28;20052;-80
2022/04/10 12:37:35;;;;;;;1.60;0.20;;;13.20;51.30;;;;;;5052816;28;20021;-80
2022/04/10 12:40:02;;;;;;;3.70;0.20;;;13.40;49.20;;;;;;5033609;28;20040;-80
2022/04/10 12:42:37;;;;;;;0.93;0.10;;;13.60;48.70;;;;;;5033002;28;20488;-80
2022/04/10 12:45:08;;;;;;;2.22;0.20;;;14.00;48.90;;;;;;5033339;28;20433;-80
2022/04/10 12:47:46;;;;;;;3.60;0.30;;;14.20;48.20;;;;;;5032560;28;20507;-80
2022/04/10 12:50:17;;;;;;;1.27;0.20;;;14.40;48.40;;;;;;5043931;28;20029;-80
2022/04/10 12:52:44;;;;;;;1.55;0.20;;;14.50;47.50;;;;;;5053302;28;20071;-80
2022/04/10 12:55:23;;;;;;;1.45;0.20;;;14.40;46.70;;;;;;5034331;28;20029;-80
2022/04/10 12:58:00;;;;;;;2.00;0.20;;;14.20;47.80;;;;;;5033136;28;20029;-80
2022/04/10 13:00:31;;;;;;;5.07;0.30;;;14.10;48.20;;;;;;5032810;28;20022;-80